sensor_id;sensor_type;location;lat;lon;timestamp;temperature;humidity
39067;DHT22;24821;51.988;6.020;2023-02-23T00:02:15;9.60;99.90
39067;DHT22;24821;51.988;6.020;2023-02-23T00:04:41;9.60;99.90
39067;DHT22;24821;51.988;6.020;2023-02-23T00:07:07;9.60;99.90
39067;DHT22;24821;51.988;6.020;2023-02-23T00:09:33;9.70;99.90
39067;DHT22;24821;51.988;6.020;2023-02-23T00:12:04;9.70;99.90
39067;DHT22;24821;51.988;6.020;2023-02-23T00:14:33;9.70;99.90
39067;DHT22;24821;51.988;6.020;2023-02-23T00:16:59;9.70;99.90
39067;DHT22;24821;51.988;6.020;2023-02-23T00:19:25;9.70;99.90
39067;DHT22;24821;51.988;6.020;2023-02-23T00:21:52;9.70;99.90
39067;DHT22;24821;51.988;6.020;2023-02-23T00:24:17;9.70;99.90
39067;DHT22;24821;51.988;6.020;2023-02-23T00:26:44;9.70;99.90
39067;DHT22;24821;51.988;6.020;2023-02-23T00:29:14;9.70;99.90
39067;DHT22;24821;51.988;6.020;2023-02-23T00:31:47;9.70;99.90
39067;DHT22;24821;51.988;6.020;2023-02-23T00:34:15;9.70;99.90
39067;DHT22;24821;51.988;6.020;2023-02-23T00:36:41;9.70;99.90
39067;DHT22;24821;51.988;6.020;2023-02-23T00:39:10;9.70;99.90
39067;DHT22;24821;51.988;6.020;2023-02-23T00:41:48;9.70;99.90
39067;DHT22;24821;51.988;6.020;2023-02-23T00:44:14;9.60;99.90
39067;DHT22;24821;51.988;6.020;2023-02-23T00:46:40;9.60;99.90
39067;DHT22;24821;51.988;6.020;2023-02-23T00:49:09;9.60;99.90
39067;DHT22;24821;51.988;6.020;2023-02-23T00:51:35;9.60;99.90
39067;DHT22;24821;51.988;6.020;2023-02-23T00:54:02;9.60;99.90
39067;DHT22;24821;51.988;6.020;2023-02-23T00:56:28;9.60;99.90
39067;DHT22;24821;51.988;6.020;2023-02-23T00:58:54;9.60;99.90
39067;DHT22;24821;51.988;6.020;2023-02-23T01:01:20;9.60;99.90
39067;DHT22;24821;51.988;6.020;2023-02-23T01:03:46;9.60;99.90
39067;DHT22;24821;51.988;6.020;2023-02-23T01:06:15;9.60;99.90
39067;DHT22;24821;51.988;6.020;2023-02-23T01:08:44;9.60;99.90
39067;DHT22;24821;51.988;6.020;2023-02-23T01:11:12;9.60;99.90
39067;DHT22;24821;51.988;6.020;2023-02-23T01:13:40;9.70;99.90
39067;DHT22;24821;51.988;6.020;2023-02-23T01:16:09;9.70;99.90
39067;DHT22;24821;51.988;6.020;2023-02-23T01:18:36;9.70;99.90
39067;DHT22;24821;51.988;6.020;2023-02-23T01:21:03;9.70;99.90
39067;DHT22;24821;51.988;6.020;2023-02-23T01:23:31;9.70;99.90
39067;DHT22;24821;51.988;6.020;2023-02-23T01:25:57;9.80;99.90
39067;DHT22;24821;51.988;6.020;2023-02-23T01:28:23;9.80;99.90
39067;DHT22;24821;51.988;6.020;2023-02-23T01:30:49;9.80;99.90
39067;DHT22;24821;51.988;6.020;2023-02-23T01:33:14;9.80;99.90
39067;DHT22;24821;51.988;6.020;2023-02-23T01:35:41;9.80;99.90
39067;DHT22;24821;51.988;6.020;2023-02-23T01:38:08;9.80;99.90
39067;DHT22;24821;51.988;6.020;2023-02-23T01:40:34;9.80;99.90
39067;DHT22;24821;51.988;6.020;2023-02-23T01:45:36;9.80;99.90
39067;DHT22;24821;51.988;6.020;2023-02-23T01:48:15;9.80;99.90
39067;DHT22;24821;51.988;6.020;2023-02-23T01:50:47;9.80;99.90
39067;DHT22;24821;51.988;6.020;2023-02-23T01:53:14;9.80;99.90
39067;DHT22;24821;51.988;6.020;2023-02-23T01:55:41;9.80;99.90
39067;DHT22;24821;51.988;6.020;2023-02-23T01:58:15;9.80;99.90
39067;DHT22;24821;51.988;6.020;2023-02-23T02:00:49;9.80;99.90
39067;DHT22;24821;51.988;6.020;2023-02-23T02:03:33;9.80;99.90
39067;DHT22;24821;51.988;6.020;2023-02-23T02:06:02;9.80;99.90
39067;DHT22;24821;51.988;6.020;2023-02-23T02:08:29;9.80;99.90
39067;DHT22;24821;51.988;6.020;2023-02-23T02:10:56;9.80;99.90
39067;DHT22;24821;51.988;6.020;2023-02-23T02:13:28;9.80;99.90
39067;DHT22;24821;51.988;6.020;2023-02-23T02:16:16;9.80;99.90
39067;DHT22;24821;51.988;6.020;2023-02-23T02:21:38;9.70;99.90
39067;DHT22;24821;51.988;6.020;2023-02-23T02:24:41;9.80;99.90
39067;DHT22;24821;51.988;6.020;2023-02-23T02:41:26;9.70;99.90
39067;DHT22;24821;51.988;6.020;2023-02-23T02:44:20;9.70;99.90
39067;DHT22;24821;51.988;6.020;2023-02-23T02:46:53;9.70;99.90
39067;DHT22;24821;51.988;6.020;2023-02-23T02:49:33;9.70;99.90
39067;DHT22;24821;51.988;6.020;2023-02-23T02:54:45;9.70;99.90
39067;DHT22;24821;51.988;6.020;2023-02-23T02:57:13;9.70;99.90
39067;DHT22;24821;51.988;6.020;2023-02-23T02:59:48;9.70;99.90
39067;DHT22;24821;51.988;6.020;2023-02-23T03:02:34;9.70;99.90
39067;DHT22;24821;51.988;6.020;2023-02-23T03:05:26;9.70;99.90
39067;DHT22;24821;51.988;6.020;2023-02-23T03:11:27;9.70;99.90
39067;DHT22;24821;51.988;6.020;2023-02-23T03:17:29;9.70;99.90
39067;DHT22;24821;51.988;6.020;2023-02-23T03:23:21;9.70;99.90
39067;DHT22;24821;51.988;6.020;2023-02-23T03:29:01;9.70;99.90
39067;DHT22;24821;51.988;6.020;2023-02-23T03:35:04;9.70;99.90
39067;DHT22;24821;51.988;6.020;2023-02-23T03:38:00;9.60;99.90
39067;DHT22;24821;51.988;6.020;2023-02-23T03:40:45;9.60;99.90
39067;DHT22;24821;51.988;6.020;2023-02-23T03:43:43;9.60;99.90
39067;DHT22;24821;51.988;6.020;2023-02-23T03:46:30;9.60;99.90
39067;DHT22;24821;51.988;6.020;2023-02-23T03:49:15;9.60;99.90
39067;DHT22;24821;51.988;6.020;2023-02-23T03:52:06;9.60;99.90
39067;DHT22;24821;51.988;6.020;2023-02-23T03:55:01;9.60;99.90
39067;DHT22;24821;51.988;6.020;2023-02-23T03:57:50;9.60;99.90
39067;DHT22;24821;51.988;6.020;2023-02-23T04:00:44;9.70;99.90
39067;DHT22;24821;51.988;6.020;2023-02-23T04:03:33;9.60;99.90
39067;DHT22;24821;51.988;6.020;2023-02-23T04:06:18;9.60;99.90
39067;DHT22;24821;51.988;6.020;2023-02-23T04:09:05;9.60;99.90
39067;DHT22;24821;51.988;6.020;2023-02-23T04:12:05;9.60;99.90
39067;DHT22;24821;51.988;6.020;2023-02-23T04:15:10;9.60;99.90
39067;DHT22;24821;51.988;6.020;2023-02-23T04:17:38;9.60;99.90
39067;DHT22;24821;51.988;6.020;2023-02-23T04:20:04;9.60;99.90
39067;DHT22;24821;51.988;6.020;2023-02-23T04:22:31;9.60;99.90
39067;DHT22;24821;51.988;6.020;2023-02-23T04:24:57;9.60;99.90
39067;DHT22;24821;51.988;6.020;2023-02-23T04:27:23;9.60;99.90
39067;DHT22;24821;51.988;6.020;2023-02-23T04:29:48;9.60;99.90
39067;DHT22;24821;51.988;6.020;2023-02-23T04:32:17;9.60;99.90
39067;DHT22;24821;51.988;6.020;2023-02-23T04:34:43;9.60;99.90
39067;DHT22;24821;51.988;6.020;2023-02-23T04:37:09;9.60;99.90
39067;DHT22;24821;51.988;6.020;2023-02-23T04:39:35;9.60;99.90
39067;DHT22;24821;51.988;6.020;2023-02-23T04:42:01;9.60;99.90
39067;DHT22;24821;51.988;6.020;2023-02-23T04:44:27;9.60;99.90
39067;DHT22;24821;51.988;6.020;2023-02-23T04:46:52;9.60;99.90
39067;DHT22;24821;51.988;6.020;2023-02-23T04:49:18;9.60;99.90
39067;DHT22;24821;51.988;6.020;2023-02-23T04:51:43;9.60;99.90
39067;DHT22;24821;51.988;6.020;2023-02-23T04:54:09;9.60;99.90
39067;DHT22;24821;51.988;6.020;2023-02-23T04:56:34;9.60;99.90
39067;DHT22;24821;51.988;6.020;2023-02-23T04:59:00;9.60;99.90
39067;DHT22;24821;51.988;6.020;2023-02-23T05:01:26;9.60;99.90
39067;DHT22;24821;51.988;6.020;2023-02-23T05:03:53;9.50;99.90
39067;DHT22;24821;51.988;6.020;2023-02-23T05:06:18;9.50;99.90
39067;DHT22;24821;51.988;6.020;2023-02-23T05:08:45;9.50;99.90
39067;DHT22;24821;51.988;6.020;2023-02-23T05:11:11;9.50;99.90
39067;DHT22;24821;51.988;6.020;2023-02-23T05:13:36;9.50;99.90
39067;DHT22;24821;51.988;6.020;2023-02-23T05:16:02;9.60;99.90
39067;DHT22;24821;51.988;6.020;2023-02-23T05:18:28;9.50;99.90
39067;DHT22;24821;51.988;6.020;2023-02-23T05:21:01;9.50;99.90
39067;DHT22;24821;51.988;6.020;2023-02-23T05:23:27;9.50;99.90
39067;DHT22;24821;51.988;6.020;2023-02-23T05:25:58;9.50;99.90
39067;DHT22;24821;51.988;6.020;2023-02-23T05:28:25;9.50;99.90
39067;DHT22;24821;51.988;6.020;2023-02-23T05:30:50;9.50;99.90
39067;DHT22;24821;51.988;6.020;2023-02-23T05:33:16;9.50;99.90
39067;DHT22;24821;51.988;6.020;2023-02-23T05:35:41;9.50;99.90
39067;DHT22;24821;51.988;6.020;2023-02-23T05:38:07;9.50;99.90
39067;DHT22;24821;51.988;6.020;2023-02-23T05:40:32;9.50;99.90
39067;DHT22;24821;51.988;6.020;2023-02-23T05:42:58;9.40;99.90
39067;DHT22;24821;51.988;6.020;2023-02-23T05:45:24;9.40;99.90
39067;DHT22;24821;51.988;6.020;2023-02-23T05:47:50;9.40;99.90
39067;DHT22;24821;51.988;6.020;2023-02-23T05:50:16;9.40;99.90
39067;DHT22;24821;51.988;6.020;2023-02-23T05:52:42;9.40;99.90
39067;DHT22;24821;51.988;6.020;2023-02-23T05:55:09;9.40;99.90
39067;DHT22;24821;51.988;6.020;2023-02-23T05:57:36;9.40;99.90
39067;DHT22;24821;51.988;6.020;2023-02-23T06:00:04;9.40;99.90
39067;DHT22;24821;51.988;6.020;2023-02-23T06:02:30;9.40;99.90
39067;DHT22;24821;51.988;6.020;2023-02-23T06:04:56;9.40;99.90
39067;DHT22;24821;51.988;6.020;2023-02-23T06:07:21;9.30;99.90
39067;DHT22;24821;51.988;6.020;2023-02-23T06:09:47;9.40;99.90
39067;DHT22;24821;51.988;6.020;2023-02-23T06:12:13;9.40;99.90
39067;DHT22;24821;51.988;6.020;2023-02-23T06:14:38;9.30;99.90
39067;DHT22;24821;51.988;6.020;2023-02-23T06:17:04;9.30;99.90
39067;DHT22;24821;51.988;6.020;2023-02-23T06:19:30;9.30;99.90
39067;DHT22;24821;51.988;6.020;2023-02-23T06:21:56;9.40;99.90
39067;DHT22;24821;51.988;6.020;2023-02-23T06:24:21;9.30;99.90
39067;DHT22;24821;51.988;6.020;2023-02-23T06:26:48;9.30;99.90
39067;DHT22;24821;51.988;6.020;2023-02-23T06:29:14;9.30;99.90
39067;DHT22;24821;51.988;6.020;2023-02-23T06:31:41;9.30;99.90
39067;DHT22;24821;51.988;6.020;2023-02-23T06:34:07;9.30;99.90
39067;DHT22;24821;51.988;6.020;2023-02-23T06:36:33;9.30;99.90
39067;DHT22;24821;51.988;6.020;2023-02-23T06:38:59;9.40;99.90
39067;DHT22;24821;51.988;6.020;2023-02-23T06:41:25;9.30;99.90
39067;DHT22;24821;51.988;6.020;2023-02-23T06:43:51;9.30;99.90
39067;DHT22;24821;51.988;6.020;2023-02-23T06:46:17;9.20;99.90
39067;DHT22;24821;51.988;6.020;2023-02-23T06:48:43;9.30;99.90
39067;DHT22;24821;51.988;6.020;2023-02-23T06:51:09;9.20;99.90
39067;DHT22;24821;51.988;6.020;2023-02-23T06:53:35;9.20;99.90
39067;DHT22;24821;51.988;6.020;2023-02-23T06:56:01;9.20;99.90
39067;DHT22;24821;51.988;6.020;2023-02-23T06:58:28;9.20;99.90
39067;DHT22;24821;51.988;6.020;2023-02-23T07:00:57;9.20;99.90
39067;DHT22;24821;51.988;6.020;2023-02-23T07:03:24;9.30;99.90
39067;DHT22;24821;51.988;6.020;2023-02-23T07:05:51;9.20;99.90
39067;DHT22;24821;51.988;6.020;2023-02-23T07:08:17;9.30;99.90
39067;DHT22;24821;51.988;6.020;2023-02-23T07:10:43;9.30;99.90
39067;DHT22;24821;51.988;6.020;2023-02-23T07:13:09;9.30;99.90
39067;DHT22;24821;51.988;6.020;2023-02-23T07:15:38;9.30;99.90
39067;DHT22;24821;51.988;6.020;2023-02-23T07:18:04;9.30;99.90
39067;DHT22;24821;51.988;6.020;2023-02-23T07:20:29;9.30;99.90
39067;DHT22;24821;51.988;6.020;2023-02-23T07:22:56;9.30;99.90
39067;DHT22;24821;51.988;6.020;2023-02-23T07:25:21;9.30;99.90
39067;DHT22;24821;51.988;6.020;2023-02-23T07:27:47;9.30;99.90
39067;DHT22;24821;51.988;6.020;2023-02-23T07:30:13;9.30;99.90
39067;DHT22;24821;51.988;6.020;2023-02-23T07:32:40;9.30;99.90
39067;DHT22;24821;51.988;6.020;2023-02-23T07:35:06;9.30;99.90
39067;DHT22;24821;51.988;6.020;2023-02-23T07:37:32;9.30;99.90
39067;DHT22;24821;51.988;6.020;2023-02-23T07:39:57;9.30;99.90
39067;DHT22;24821;51.988;6.020;2023-02-23T07:42:23;9.30;99.90
39067;DHT22;24821;51.988;6.020;2023-02-23T07:44:49;9.30;99.90
39067;DHT22;24821;51.988;6.020;2023-02-23T07:47:14;9.30;99.90
39067;DHT22;24821;51.988;6.020;2023-02-23T07:49:40;9.30;99.90
39067;DHT22;24821;51.988;6.020;2023-02-23T07:52:05;9.30;99.90
39067;DHT22;24821;51.988;6.020;2023-02-23T07:54:31;9.30;99.90
39067;DHT22;24821;51.988;6.020;2023-02-23T07:56:57;9.30;99.90
39067;DHT22;24821;51.988;6.020;2023-02-23T07:59:23;9.30;99.90
39067;DHT22;24821;51.988;6.020;2023-02-23T08:01:49;9.30;99.90
39067;DHT22;24821;51.988;6.020;2023-02-23T08:04:16;9.30;99.90
39067;DHT22;24821;51.988;6.020;2023-02-23T08:06:41;9.30;99.90
39067;DHT22;24821;51.988;6.020;2023-02-23T08:09:07;9.40;99.90
39067;DHT22;24821;51.988;6.020;2023-02-23T08:11:33;9.30;99.90
39067;DHT22;24821;51.988;6.020;2023-02-23T08:13:59;9.30;99.90
39067;DHT22;24821;51.988;6.020;2023-02-23T08:16:31;9.30;99.90
39067;DHT22;24821;51.988;6.020;2023-02-23T08:18:59;9.30;99.90
39067;DHT22;24821;51.988;6.020;2023-02-23T08:21:26;9.30;99.90
39067;DHT22;24821;51.988;6.020;2023-02-23T08:23:52;9.30;99.90
39067;DHT22;24821;51.988;6.020;2023-02-23T08:26:18;9.30;99.90
39067;DHT22;24821;51.988;6.020;2023-02-23T08:28:43;9.30;99.90
39067;DHT22;24821;51.988;6.020;2023-02-23T08:31:12;9.30;99.90
39067;DHT22;24821;51.988;6.020;2023-02-23T08:33:38;9.40;99.90
39067;DHT22;24821;51.988;6.020;2023-02-23T08:36:05;9.40;99.90
39067;DHT22;24821;51.988;6.020;2023-02-23T08:38:31;9.40;99.90
39067;DHT22;24821;51.988;6.020;2023-02-23T08:40:59;9.40;99.90
39067;DHT22;24821;51.988;6.020;2023-02-23T08:43:27;9.50;99.90
39067;DHT22;24821;51.988;6.020;2023-02-23T08:45:52;9.50;99.90
39067;DHT22;24821;51.988;6.020;2023-02-23T08:48:18;9.50;99.90
39067;DHT22;24821;51.988;6.020;2023-02-23T08:50:44;9.50;99.90
39067;DHT22;24821;51.988;6.020;2023-02-23T08:53:14;9.50;99.90
39067;DHT22;24821;51.988;6.020;2023-02-23T08:55:40;9.60;99.90
39067;DHT22;24821;51.988;6.020;2023-02-23T08:58:07;9.60;99.90
39067;DHT22;24821;51.988;6.020;2023-02-23T09:00:35;9.60;99.90
39067;DHT22;24821;51.988;6.020;2023-02-23T09:03:02;9.60;99.90
39067;DHT22;24821;51.988;6.020;2023-02-23T09:05:29;9.60;99.90
39067;DHT22;24821;51.988;6.020;2023-02-23T09:07:55;9.60;99.90
39067;DHT22;24821;51.988;6.020;2023-02-23T09:10:21;9.70;99.90
39067;DHT22;24821;51.988;6.020;2023-02-23T09:12:49;9.70;99.90
39067;DHT22;24821;51.988;6.020;2023-02-23T09:15:15;9.70;99.90
39067;DHT22;24821;51.988;6.020;2023-02-23T09:17:41;9.70;99.90
39067;DHT22;24821;51.988;6.020;2023-02-23T09:20:10;9.70;99.90
39067;DHT22;24821;51.988;6.020;2023-02-23T09:22:38;9.80;99.90
39067;DHT22;24821;51.988;6.020;2023-02-23T09:25:04;9.80;99.90
39067;DHT22;24821;51.988;6.020;2023-02-23T09:27:30;9.90;99.90
39067;DHT22;24821;51.988;6.020;2023-02-23T09:29:56;9.90;99.90
39067;DHT22;24821;51.988;6.020;2023-02-23T09:32:22;9.90;99.90
39067;DHT22;24821;51.988;6.020;2023-02-23T09:34:47;10.00;99.90
39067;DHT22;24821;51.988;6.020;2023-02-23T09:37:14;10.00;99.90
39067;DHT22;24821;51.988;6.020;2023-02-23T09:39:40;10.10;99.90
39067;DHT22;24821;51.988;6.020;2023-02-23T09:42:35;10.10;99.90
39067;DHT22;24821;51.988;6.020;2023-02-23T09:48:10;10.30;99.90
39067;DHT22;24821;51.988;6.020;2023-02-23T09:50:39;10.20;99.90
39067;DHT22;24821;51.988;6.020;2023-02-23T09:53:15;10.20;99.90
39067;DHT22;24821;51.988;6.020;2023-02-23T09:55:43;10.30;99.90
39067;DHT22;24821;51.988;6.020;2023-02-23T09:58:23;10.30;99.90
39067;DHT22;24821;51.988;6.020;2023-02-23T10:01:17;10.30;99.90
39067;DHT22;24821;51.988;6.020;2023-02-23T10:06:37;10.30;99.90
39067;DHT22;24821;51.988;6.020;2023-02-23T10:09:14;10.30;99.90
39067;DHT22;24821;51.988;6.020;2023-02-23T10:12:41;10.30;99.90
39067;DHT22;24821;51.988;6.020;2023-02-23T10:15:18;10.30;99.90
39067;DHT22;24821;51.988;6.020;2023-02-23T10:17:54;10.30;99.90
39067;DHT22;24821;51.988;6.020;2023-02-23T10:20:49;10.30;99.90
39067;DHT22;24821;51.988;6.020;2023-02-23T10:23:38;10.30;99.90
39067;DHT22;24821;51.988;6.020;2023-02-23T10:26:06;10.40;99.90
39067;DHT22;24821;51.988;6.020;2023-02-23T10:28:34;10.40;99.90
39067;DHT22;24821;51.988;6.020;2023-02-23T10:31:03;10.50;99.90
39067;DHT22;24821;51.988;6.020;2023-02-23T10:33:33;10.50;99.90
39067;DHT22;24821;51.988;6.020;2023-02-23T10:36:16;10.60;99.90
39067;DHT22;24821;51.988;6.020;2023-02-23T10:38:43;10.70;99.90
39067;DHT22;24821;51.988;6.020;2023-02-23T10:41:10;10.60;99.90
39067;DHT22;24821;51.988;6.020;2023-02-23T10:43:36;10.70;99.90
39067;DHT22;24821;51.988;6.020;2023-02-23T10:46:02;10.70;99.90
39067;DHT22;24821;51.988;6.020;2023-02-23T10:48:37;10.70;99.90
39067;DHT22;24821;51.988;6.020;2023-02-23T10:51:16;10.70;99.90
39067;DHT22;24821;51.988;6.020;2023-02-23T10:53:42;10.70;99.90
39067;DHT22;24821;51.988;6.020;2023-02-23T10:56:16;10.60;99.90
39067;DHT22;24821;51.988;6.020;2023-02-23T10:58:45;10.60;99.90
39067;DHT22;24821;51.988;6.020;2023-02-23T11:01:14;10.60;99.90
39067;DHT22;24821;51.988;6.020;2023-02-23T11:03:48;10.60;99.90
39067;DHT22;24821;51.988;6.020;2023-02-23T11:06:31;10.60;99.90
39067;DHT22;24821;51.988;6.020;2023-02-23T11:08:57;10.60;99.90
39067;DHT22;24821;51.988;6.020;2023-02-23T11:11:27;10.60;99.90
39067;DHT22;24821;51.988;6.020;2023-02-23T11:13:55;10.60;99.90
39067;DHT22;24821;51.988;6.020;2023-02-23T11:16:37;10.50;99.90
39067;DHT22;24821;51.988;6.020;2023-02-23T11:19:04;10.60;99.90
39067;DHT22;24821;51.988;6.020;2023-02-23T11:21:34;10.50;99.90
39067;DHT22;24821;51.988;6.020;2023-02-23T11:24:21;10.50;99.90
39067;DHT22;24821;51.988;6.020;2023-02-23T11:26:49;10.50;99.90
39067;DHT22;24821;51.988;6.020;2023-02-23T11:29:30;10.40;99.90
39067;DHT22;24821;51.988;6.020;2023-02-23T11:31:58;10.50;99.90
39067;DHT22;24821;51.988;6.020;2023-02-23T11:34:35;10.40;99.90
39067;DHT22;24821;51.988;6.020;2023-02-23T11:39:59;10.50;99.90
39067;DHT22;24821;51.988;6.020;2023-02-23T11:42:27;10.40;99.90
39067;DHT22;24821;51.988;6.020;2023-02-23T11:45:04;10.40;99.90
39067;DHT22;24821;51.988;6.020;2023-02-23T11:47:32;10.40;99.90
39067;DHT22;24821;51.988;6.020;2023-02-23T11:49:59;10.40;99.90
39067;DHT22;24821;51.988;6.020;2023-02-23T11:52:26;10.40;99.90
39067;DHT22;24821;51.988;6.020;2023-02-23T11:54:58;10.40;99.90
39067;DHT22;24821;51.988;6.020;2023-02-23T11:57:34;10.50;99.90
39067;DHT22;24821;51.988;6.020;2023-02-23T12:00:09;10.50;99.90
39067;DHT22;24821;51.988;6.020;2023-02-23T12:03:05;10.40;99.90
39067;DHT22;24821;51.988;6.020;2023-02-23T12:05:31;10.40;99.90
39067;DHT22;24821;51.988;6.020;2023-02-23T12:21:20;10.50;99.90
39067;DHT22;24821;51.988;6.020;2023-02-23T12:23:50;10.50;99.90
39067;DHT22;24821;51.988;6.020;2023-02-23T12:26:20;10.40;99.90
39067;DHT22;24821;51.988;6.020;2023-02-23T12:28:53;10.50;99.90
39067;DHT22;24821;51.988;6.020;2023-02-23T12:31:42;10.50;99.90
39067;DHT22;24821;51.988;6.020;2023-02-23T12:34:23;10.60;99.90
39067;DHT22;24821;51.988;6.020;2023-02-23T12:37:08;10.50;99.90
39067;DHT22;24821;51.988;6.020;2023-02-23T12:39:43;10.60;99.90
39067;DHT22;24821;51.988;6.020;2023-02-23T12:42:23;10.60;99.90
39067;DHT22;24821;51.988;6.020;2023-02-23T12:44:55;10.60;99.90
39067;DHT22;24821;51.988;6.020;2023-02-23T12:50:29;10.60;99.90
39067;DHT22;24821;51.988;6.020;2023-02-23T12:53:18;10.60;99.90
39067;DHT22;24821;51.988;6.020;2023-02-23T13:01:30;10.50;99.90
39067;DHT22;24821;51.988;6.020;2023-02-23T13:06:46;10.50;99.90
39067;DHT22;24821;51.988;6.020;2023-02-23T13:09:44;10.50;99.90
39067;DHT22;24821;51.988;6.020;2023-02-23T13:12:35;10.50;99.90
39067;DHT22;24821;51.988;6.020;2023-02-23T13:18:08;10.50;99.90
39067;DHT22;24821;51.988;6.020;2023-02-23T13:26:09;10.30;99.90
39067;DHT22;24821;51.988;6.020;2023-02-23T13:31:26;10.20;99.90
39067;DHT22;24821;51.988;6.020;2023-02-23T13:33:55;10.20;99.90
39067;DHT22;24821;51.988;6.020;2023-02-23T13:36:21;10.10;99.90
39067;DHT22;24821;51.988;6.020;2023-02-23T13:42:30;10.10;99.90
39067;DHT22;24821;51.988;6.020;2023-02-23T13:44:41;10.10;99.90
39067;DHT22;24821;51.988;6.020;2023-02-23T13:52:31;10.00;99.90
39067;DHT22;24821;51.988;6.020;2023-02-23T13:54:59;10.00;99.90
39067;DHT22;24821;51.988;6.020;2023-02-23T13:57:31;10.00;99.90
39067;DHT22;24821;51.988;6.020;2023-02-23T13:59:57;10.00;99.90
39067;DHT22;24821;51.988;6.020;2023-02-23T14:02:32;10.00;99.90
39067;DHT22;24821;51.988;6.020;2023-02-23T14:05:18;10.00;99.90
39067;DHT22;24821;51.988;6.020;2023-02-23T14:07:47;10.00;99.90
39067;DHT22;24821;51.988;6.020;2023-02-23T14:10:26;10.00;99.90
39067;DHT22;24821;51.988;6.020;2023-02-23T14:15:44;10.10;99.90
39067;DHT22;24821;51.988;6.020;2023-02-23T14:20:55;10.10;99.90
39067;DHT22;24821;51.988;6.020;2023-02-23T14:25:49;10.10;99.90
39067;DHT22;24821;51.988;6.020;2023-02-23T14:28:25;10.10;99.90
39067;DHT22;24821;51.988;6.020;2023-02-23T14:46:35;10.30;99.90
39067;DHT22;24821;51.988;6.020;2023-02-23T14:49:08;10.30;99.90
39067;DHT22;24821;51.988;6.020;2023-02-23T14:51:51;10.40;99.90
39067;DHT22;24821;51.988;6.020;2023-02-23T14:54:37;10.40;99.90
39067;DHT22;24821;51.988;6.020;2023-02-23T14:57:24;10.40;99.90
39067;DHT22;24821;51.988;6.020;2023-02-23T14:59:59;10.40;99.90
39067;DHT22;24821;51.988;6.020;2023-02-23T15:02:28;10.40;99.90
39067;DHT22;24821;51.988;6.020;2023-02-23T15:04:55;10.40;99.90
39067;DHT22;24821;51.988;6.020;2023-02-23T15:07:29;10.40;99.90
39067;DHT22;24821;51.988;6.020;2023-02-23T15:09:57;10.40;99.90
39067;DHT22;24821;51.988;6.020;2023-02-23T15:12:27;10.40;99.90
39067;DHT22;24821;51.988;6.020;2023-02-23T15:15:13;10.40;99.90
39067;DHT22;24821;51.988;6.020;2023-02-23T15:17:42;10.40;99.90
39067;DHT22;24821;51.988;6.020;2023-02-23T15:20:15;10.40;99.90
39067;DHT22;24821;51.988;6.020;2023-02-23T15:22:42;10.40;99.90
39067;DHT22;24821;51.988;6.020;2023-02-23T15:25:20;10.40;99.90
39067;DHT22;24821;51.988;6.020;2023-02-23T15:27:46;10.40;99.90
39067;DHT22;24821;51.988;6.020;2023-02-23T15:30:23;10.40;99.90
39067;DHT22;24821;51.988;6.020;2023-02-23T15:33:09;10.40;99.90
39067;DHT22;24821;51.988;6.020;2023-02-23T15:35:42;10.50;99.90
39067;DHT22;24821;51.988;6.020;2023-02-23T15:38:15;10.40;99.90
39067;DHT22;24821;51.988;6.020;2023-02-23T15:40:51;10.40;99.90
39067;DHT22;24821;51.988;6.020;2023-02-23T15:43:18;10.40;99.90
39067;DHT22;24821;51.988;6.020;2023-02-23T15:45:48;10.40;99.90
39067;DHT22;24821;51.988;6.020;2023-02-23T15:48:21;10.40;99.90
39067;DHT22;24821;51.988;6.020;2023-02-23T15:50:51;10.40;99.90
39067;DHT22;24821;51.988;6.020;2023-02-23T15:53:36;10.40;99.90
39067;DHT22;24821;51.988;6.020;2023-02-23T15:56:19;10.40;99.90
39067;DHT22;24821;51.988;6.020;2023-02-23T15:58:50;10.40;99.90
39067;DHT22;24821;51.988;6.020;2023-02-23T16:01:24;10.40;99.90
39067;DHT22;24821;51.988;6.020;2023-02-23T16:04:07;10.30;99.90
39067;DHT22;24821;51.988;6.020;2023-02-23T16:06:34;10.40;99.90
39067;DHT22;24821;51.988;6.020;2023-02-23T16:11:48;10.30;99.90
39067;DHT22;24821;51.988;6.020;2023-02-23T16:14:15;10.20;99.90
39067;DHT22;24821;51.988;6.020;2023-02-23T16:16:41;10.20;99.90
39067;DHT22;24821;51.988;6.020;2023-02-23T16:19:13;10.10;99.90
39067;DHT22;24821;51.988;6.020;2023-02-23T16:21:39;10.10;99.90
39067;DHT22;24821;51.988;6.020;2023-02-23T16:24:13;10.10;99.90
39067;DHT22;24821;51.988;6.020;2023-02-23T16:26:48;10.10;99.90
39067;DHT22;24821;51.988;6.020;2023-02-23T16:29:21;10.00;99.90
39067;DHT22;24821;51.988;6.020;2023-02-23T16:31:55;10.00;99.90
39067;DHT22;24821;51.988;6.020;2023-02-23T16:34:34;10.00;99.90
39067;DHT22;24821;51.988;6.020;2023-02-23T16:37:18;10.00;99.90
39067;DHT22;24821;51.988;6.020;2023-02-23T16:39:47;10.10;99.90
39067;DHT22;24821;51.988;6.020;2023-02-23T16:42:32;10.00;99.90
39067;DHT22;24821;51.988;6.020;2023-02-23T16:44:58;10.00;99.90
39067;DHT22;24821;51.988;6.020;2023-02-23T16:47:39;10.00;99.90
39067;DHT22;24821;51.988;6.020;2023-02-23T16:50:16;10.00;99.90
39067;DHT22;24821;51.988;6.020;2023-02-23T16:52:43;10.00;99.90
39067;DHT22;24821;51.988;6.020;2023-02-23T16:55:12;9.90;99.90
39067;DHT22;24821;51.988;6.020;2023-02-23T16:57:44;10.00;99.90
39067;DHT22;24821;51.988;6.020;2023-02-23T17:00:12;9.90;99.90
39067;DHT22;24821;51.988;6.020;2023-02-23T17:02:39;9.90;99.90
39067;DHT22;24821;51.988;6.020;2023-02-23T17:05:10;9.90;99.90
39067;DHT22;24821;51.988;6.020;2023-02-23T17:07:37;9.90;99.90
39067;DHT22;24821;51.988;6.020;2023-02-23T17:10:05;9.90;99.90
39067;DHT22;24821;51.988;6.020;2023-02-23T17:12:31;9.90;99.90
39067;DHT22;24821;51.988;6.020;2023-02-23T17:14:56;9.90;99.90
39067;DHT22;24821;51.988;6.020;2023-02-23T17:17:22;9.90;99.90
39067;DHT22;24821;51.988;6.020;2023-02-23T17:19:47;9.90;99.90
39067;DHT22;24821;51.988;6.020;2023-02-23T17:22:13;9.90;99.90
39067;DHT22;24821;51.988;6.020;2023-02-23T17:24:40;9.80;99.90
39067;DHT22;24821;51.988;6.020;2023-02-23T17:27:06;9.70;99.90
39067;DHT22;24821;51.988;6.020;2023-02-23T17:29:32;9.50;99.90
39067;DHT22;24821;51.988;6.020;2023-02-23T17:31:57;9.40;99.90
39067;DHT22;24821;51.988;6.020;2023-02-23T17:34:27;9.30;99.90
39067;DHT22;24821;51.988;6.020;2023-02-23T17:36:53;9.20;99.90
39067;DHT22;24821;51.988;6.020;2023-02-23T17:39:19;9.10;99.90
39067;DHT22;24821;51.988;6.020;2023-02-23T17:41:45;9.10;99.90
39067;DHT22;24821;51.988;6.020;2023-02-23T17:44:11;9.00;99.90
39067;DHT22;24821;51.988;6.020;2023-02-23T17:46:37;9.00;99.90
39067;DHT22;24821;51.988;6.020;2023-02-23T17:49:02;8.90;99.90
39067;DHT22;24821;51.988;6.020;2023-02-23T17:51:28;8.90;99.90
39067;DHT22;24821;51.988;6.020;2023-02-23T17:53:54;8.80;99.90
39067;DHT22;24821;51.988;6.020;2023-02-23T17:56:20;8.80;99.90
39067;DHT22;24821;51.988;6.020;2023-02-23T17:58:47;8.70;99.90
39067;DHT22;24821;51.988;6.020;2023-02-23T18:01:13;8.70;99.90
39067;DHT22;24821;51.988;6.020;2023-02-23T18:03:38;8.70;99.90